Pagrindinis puslapis
METAR-TAF:

METAR-TAF

Oro uostai :

Halmstadas, Švedija

platuma: 56-41N, ilguma: 012-50E, Aukštis: 30 m

Dabartinis oras

Ataskaita buvo paskelbta 32 minutes, ne 15:50 UTC
Vėjas 17 kt iš Vakarų/Šiaurės Vakarų su gūsio iki 28 kt
Temperatūra 6°C
Drėgmė 81%
Slėgis 998 hPa
Matomumas 10 km arba daugiau

METAR: ESMT 071550Z AUTO 29017G28KT 9999 BKN022/// OVC030/// 06/03 Q0998

Laikas: 17:22 (16:22 UTC)

Prognozė

Ataskaita buvo paskelbta 5 valandos ir 10 minutes, ne 11:12 UTC
Prognozė galioja nuo 07 metu 12 UTC su 07 metu 16 UTC
Vėjas 20 kt iš Vakarų/Šiaurės Vakarų
Matomumas 10 km arba daugiau
Išsisklaidę debesys ne aukštis 2500 ft
Laikinai
nuo 07 metu 12 UTC su 07 metu 16 UTC
Vėjas 22 kt iš Vakarų/Šiaurės Vakarų su gūsio iki 35 kt

TAF: ESMT 071112Z 0712/0716 29020KT 9999 SCT025 TEMPO 0712/0716 30022G35KT

Orai ataskaitas ir orų prognozės (METAR, TAF).

turimą stotys yra geltonos ir raudonos taškus žemėlapyje.

Perkelti pele per norėdami pamatyti stoties vardą.

Tada spustelėkite, norėdami matyti oro stebėjimo ir prognozės.

Norėdami pakeisti žemėlapį: spustelėkite ant žalios mygtukų su juodo kryžiaus žemyn,; žalią mygtuką su brūkšneliu, jei norite nutolinti; arba žalių rodyklių gretimoms žemėlapius.


METAR-TAF: